sensor_id;sensor_type;location;lat;lon;timestamp;P1;durP1;ratioP1;P2;durP2;ratioP2
83558;SDS011;73527;47.882;7.718;2024-02-26T00:00:08;2.05;;;0.73;;
83558;SDS011;73527;47.882;7.718;2024-02-26T00:05:06;1.20;;;1.10;;
83558;SDS011;73527;47.882;7.718;2024-02-26T00:07:32;1.33;;;0.90;;
83558;SDS011;73527;47.882;7.718;2024-02-26T00:09:58;0.98;;;0.75;;
83558;SDS011;73527;47.882;7.718;2024-02-26T00:12:23;1.00;;;0.68;;
83558;SDS011;73527;47.882;7.718;2024-02-26T00:14:49;0.50;;;0.45;;
83558;SDS011;73527;47.882;7.718;2024-02-26T00:17:15;0.85;;;0.60;;
83558;SDS011;73527;47.882;7.718;2024-02-26T00:19:40;0.95;;;0.73;;
83558;SDS011;73527;47.882;7.718;2024-02-26T00:22:06;0.93;;;0.82;;
83558;SDS011;73527;47.882;7.718;2024-02-26T00:24:31;0.73;;;0.68;;
83558;SDS011;73527;47.882;7.718;2024-02-26T00:26:56;0.80;;;0.80;;
83558;SDS011;73527;47.882;7.718;2024-02-26T00:29:22;1.85;;;0.73;;
83558;SDS011;73527;47.882;7.718;2024-02-26T00:31:48;0.73;;;0.32;;
83558;SDS011;73527;47.882;7.718;2024-02-26T00:34:14;0.60;;;0.45;;
83558;SDS011;73527;47.882;7.718;2024-02-26T00:36:39;0.38;;;0.30;;
83558;SDS011;73527;47.882;7.718;2024-02-26T00:39:04;0.52;;;0.50;;
83558;SDS011;73527;47.882;7.718;2024-02-26T00:41:30;1.85;;;1.02;;
83558;SDS011;73527;47.882;7.718;2024-02-26T00:43:55;0.80;;;0.70;;
83558;SDS011;73527;47.882;7.718;2024-02-26T00:46:20;0.65;;;0.60;;
83558;SDS011;73527;47.882;7.718;2024-02-26T00:48:46;1.55;;;0.75;;
83558;SDS011;73527;47.882;7.718;2024-02-26T00:51:11;0.95;;;0.80;;
83558;SDS011;73527;47.882;7.718;2024-02-26T00:53:36;0.30;;;0.30;;
83558;SDS011;73527;47.882;7.718;2024-02-26T00:56:02;1.50;;;0.98;;
83558;SDS011;73527;47.882;7.718;2024-02-26T00:58:27;0.70;;;0.70;;
83558;SDS011;73527;47.882;7.718;2024-02-26T01:00:53;1.10;;;0.70;;
83558;SDS011;73527;47.882;7.718;2024-02-26T01:03:18;0.82;;;0.60;;
83558;SDS011;73527;47.882;7.718;2024-02-26T01:05:44;2.50;;;0.73;;
83558;SDS011;73527;47.882;7.718;2024-02-26T01:08:10;0.60;;;0.60;;
83558;SDS011;73527;47.882;7.718;2024-02-26T01:10:35;0.52;;;0.50;;
83558;SDS011;73527;47.882;7.718;2024-02-26T01:13:01;1.00;;;0.73;;
83558;SDS011;73527;47.882;7.718;2024-02-26T01:15:27;0.93;;;0.50;;
83558;SDS011;73527;47.882;7.718;2024-02-26T01:17:52;1.33;;;0.70;;
83558;SDS011;73527;47.882;7.718;2024-02-26T01:20:18;0.80;;;0.80;;
83558;SDS011;73527;47.882;7.718;2024-02-26T01:22:43;0.60;;;0.60;;
83558;SDS011;73527;47.882;7.718;2024-02-26T01:25:09;0.82;;;0.70;;
83558;SDS011;73527;47.882;7.718;2024-02-26T01:27:38;1.45;;;0.80;;
83558;SDS011;73527;47.882;7.718;2024-02-26T01:30:04;0.70;;;0.55;;
83558;SDS011;73527;47.882;7.718;2024-02-26T01:32:30;1.08;;;0.80;;
83558;SDS011;73527;47.882;7.718;2024-02-26T01:34:56;0.63;;;0.57;;
83558;SDS011;73527;47.882;7.718;2024-02-26T01:37:21;0.77;;;0.22;;
83558;SDS011;73527;47.882;7.718;2024-02-26T01:39:47;0.77;;;0.70;;
83558;SDS011;73527;47.882;7.718;2024-02-26T01:42:12;0.60;;;0.60;;
83558;SDS011;73527;47.882;7.718;2024-02-26T01:44:37;0.70;;;0.70;;
83558;SDS011;73527;47.882;7.718;2024-02-26T01:47:03;3.03;;;0.73;;
83558;SDS011;73527;47.882;7.718;2024-02-26T01:49:30;1.58;;;0.73;;
83558;SDS011;73527;47.882;7.718;2024-02-26T01:51:56;0.90;;;0.73;;
83558;SDS011;73527;47.882;7.718;2024-02-26T01:54:23;1.85;;;1.00;;
83558;SDS011;73527;47.882;7.718;2024-02-26T01:56:49;0.47;;;0.47;;
83558;SDS011;73527;47.882;7.718;2024-02-26T01:59:15;0.93;;;0.80;;
83558;SDS011;73527;47.882;7.718;2024-02-26T02:04:09;1.25;;;0.68;;
83558;SDS011;73527;47.882;7.718;2024-02-26T02:06:34;0.90;;;0.68;;
83558;SDS011;73527;47.882;7.718;2024-02-26T02:09:01;0.93;;;0.65;;
83558;SDS011;73527;47.882;7.718;2024-02-26T02:11:31;0.57;;;0.57;;
83558;SDS011;73527;47.882;7.718;2024-02-26T02:13:58;0.68;;;0.30;;
83558;SDS011;73527;47.882;7.718;2024-02-26T02:16:23;2.33;;;0.85;;
83558;SDS011;73527;47.882;7.718;2024-02-26T02:18:48;0.60;;;0.60;;
83558;SDS011;73527;47.882;7.718;2024-02-26T02:21:14;1.13;;;0.68;;
83558;SDS011;73527;47.882;7.718;2024-02-26T02:23:39;1.33;;;0.88;;
83558;SDS011;73527;47.882;7.718;2024-02-26T02:26:05;0.68;;;0.43;;
83558;SDS011;73527;47.882;7.718;2024-02-26T02:28:30;1.42;;;0.90;;
83558;SDS011;73527;47.882;7.718;2024-02-26T02:30:56;0.57;;;0.57;;
83558;SDS011;73527;47.882;7.718;2024-02-26T02:33:21;1.58;;;0.85;;
83558;SDS011;73527;47.882;7.718;2024-02-26T02:35:48;0.55;;;0.55;;
83558;SDS011;73527;47.882;7.718;2024-02-26T02:38:15;3.20;;;0.82;;
83558;SDS011;73527;47.882;7.718;2024-02-26T02:40:41;1.00;;;0.73;;
83558;SDS011;73527;47.882;7.718;2024-02-26T02:43:06;0.88;;;0.63;;
83558;SDS011;73527;47.882;7.718;2024-02-26T02:45:31;0.90;;;0.80;;
83558;SDS011;73527;47.882;7.718;2024-02-26T02:47:57;1.40;;;0.85;;
83558;SDS011;73527;47.882;7.718;2024-02-26T02:50:22;1.65;;;0.85;;
83558;SDS011;73527;47.882;7.718;2024-02-26T02:52:47;1.58;;;0.95;;
83558;SDS011;73527;47.882;7.718;2024-02-26T02:55:16;0.68;;;0.50;;
83558;SDS011;73527;47.882;7.718;2024-02-26T02:57:41;1.63;;;0.73;;
83558;SDS011;73527;47.882;7.718;2024-02-26T03:00:10;1.80;;;0.77;;
83558;SDS011;73527;47.882;7.718;2024-02-26T03:02:36;1.38;;;0.80;;
83558;SDS011;73527;47.882;7.718;2024-02-26T03:05:05;0.80;;;0.70;;
83558;SDS011;73527;47.882;7.718;2024-02-26T03:07:31;1.70;;;0.80;;
83558;SDS011;73527;47.882;7.718;2024-02-26T03:09:56;1.38;;;0.95;;
83558;SDS011;73527;47.882;7.718;2024-02-26T03:12:22;1.33;;;0.90;;
83558;SDS011;73527;47.882;7.718;2024-02-26T03:14:48;1.85;;;1.13;;
83558;SDS011;73527;47.882;7.718;2024-02-26T03:17:13;1.45;;;0.85;;
83558;SDS011;73527;47.882;7.718;2024-02-26T03:19:39;1.13;;;0.70;;
83558;SDS011;73527;47.882;7.718;2024-02-26T03:22:05;0.90;;;0.60;;
83558;SDS011;73527;47.882;7.718;2024-02-26T03:24:30;0.65;;;0.65;;
83558;SDS011;73527;47.882;7.718;2024-02-26T03:26:56;0.90;;;0.80;;
83558;SDS011;73527;47.882;7.718;2024-02-26T03:29:21;0.98;;;0.80;;
83558;SDS011;73527;47.882;7.718;2024-02-26T03:31:47;0.70;;;0.40;;
83558;SDS011;73527;47.882;7.718;2024-02-26T03:34:12;1.05;;;0.77;;
83558;SDS011;73527;47.882;7.718;2024-02-26T03:36:39;1.08;;;0.80;;
83558;SDS011;73527;47.882;7.718;2024-02-26T03:39:04;1.00;;;0.65;;
83558;SDS011;73527;47.882;7.718;2024-02-26T03:41:35;0.77;;;0.60;;
83558;SDS011;73527;47.882;7.718;2024-02-26T03:44:01;1.10;;;0.80;;
83558;SDS011;73527;47.882;7.718;2024-02-26T03:46:27;1.33;;;0.90;;
83558;SDS011;73527;47.882;7.718;2024-02-26T03:48:52;1.67;;;1.15;;
83558;SDS011;73527;47.882;7.718;2024-02-26T03:51:17;1.23;;;0.70;;
83558;SDS011;73527;47.882;7.718;2024-02-26T03:53:43;2.90;;;1.60;;
83558;SDS011;73527;47.882;7.718;2024-02-26T03:56:08;3.65;;;1.63;;
83558;SDS011;73527;47.882;7.718;2024-02-26T03:58:36;2.78;;;1.55;;
83558;SDS011;73527;47.882;7.718;2024-02-26T04:01:01;2.60;;;1.88;;
83558;SDS011;73527;47.882;7.718;2024-02-26T04:03:26;3.75;;;2.03;;
83558;SDS011;73527;47.882;7.718;2024-02-26T04:05:52;2.95;;;1.83;;
83558;SDS011;73527;47.882;7.718;2024-02-26T04:08:17;3.25;;;1.70;;
83558;SDS011;73527;47.882;7.718;2024-02-26T04:10:42;3.30;;;2.00;;
83558;SDS011;73527;47.882;7.718;2024-02-26T04:13:08;3.00;;;1.55;;
83558;SDS011;73527;47.882;7.718;2024-02-26T04:15:33;2.88;;;1.85;;
83558;SDS011;73527;47.882;7.718;2024-02-26T04:17:59;3.20;;;2.50;;
83558;SDS011;73527;47.882;7.718;2024-02-26T04:20:24;4.50;;;2.17;;
83558;SDS011;73527;47.882;7.718;2024-02-26T04:22:49;2.55;;;1.80;;
83558;SDS011;73527;47.882;7.718;2024-02-26T04:25:15;2.40;;;2.00;;
83558;SDS011;73527;47.882;7.718;2024-02-26T04:27:40;3.35;;;2.30;;
83558;SDS011;73527;47.882;7.718;2024-02-26T04:30:06;2.80;;;1.73;;
83558;SDS011;73527;47.882;7.718;2024-02-26T04:34:57;4.03;;;2.10;;
83558;SDS011;73527;47.882;7.718;2024-02-26T04:37:22;3.30;;;2.00;;
83558;SDS011;73527;47.882;7.718;2024-02-26T04:39:48;4.05;;;1.52;;
83558;SDS011;73527;47.882;7.718;2024-02-26T04:42:13;2.08;;;1.15;;
83558;SDS011;73527;47.882;7.718;2024-02-26T04:44:39;2.47;;;1.10;;
83558;SDS011;73527;47.882;7.718;2024-02-26T04:47:04;1.30;;;1.00;;
83558;SDS011;73527;47.882;7.718;2024-02-26T04:49:30;1.17;;;0.82;;
83558;SDS011;73527;47.882;7.718;2024-02-26T04:51:55;4.30;;;0.98;;
83558;SDS011;73527;47.882;7.718;2024-02-26T04:54:20;1.30;;;0.98;;
83558;SDS011;73527;47.882;7.718;2024-02-26T04:56:46;1.05;;;0.80;;
83558;SDS011;73527;47.882;7.718;2024-02-26T04:59:11;0.77;;;0.60;;
83558;SDS011;73527;47.882;7.718;2024-02-26T05:01:36;1.38;;;0.82;;
83558;SDS011;73527;47.882;7.718;2024-02-26T05:04:02;1.08;;;0.50;;
83558;SDS011;73527;47.882;7.718;2024-02-26T05:06:31;0.73;;;0.73;;
83558;SDS011;73527;47.882;7.718;2024-02-26T05:08:56;0.80;;;0.50;;
83558;SDS011;73527;47.882;7.718;2024-02-26T05:11:21;0.80;;;0.60;;
83558;SDS011;73527;47.882;7.718;2024-02-26T05:13:50;0.60;;;0.50;;
83558;SDS011;73527;47.882;7.718;2024-02-26T05:16:15;0.55;;;0.30;;
83558;SDS011;73527;47.882;7.718;2024-02-26T05:18:41;0.80;;;0.70;;
83558;SDS011;73527;47.882;7.718;2024-02-26T05:21:06;0.77;;;0.70;;
83558;SDS011;73527;47.882;7.718;2024-02-26T05:23:31;0.75;;;0.60;;
83558;SDS011;73527;47.882;7.718;2024-02-26T05:25:57;0.60;;;0.50;;
83558;SDS011;73527;47.882;7.718;2024-02-26T05:28:22;0.63;;;0.60;;
83558;SDS011;73527;47.882;7.718;2024-02-26T05:30:47;1.15;;;0.80;;
83558;SDS011;73527;47.882;7.718;2024-02-26T05:33:13;0.47;;;0.47;;
83558;SDS011;73527;47.882;7.718;2024-02-26T05:35:38;0.45;;;0.30;;
83558;SDS011;73527;47.882;7.718;2024-02-26T05:38:05;1.02;;;0.90;;
83558;SDS011;73527;47.882;7.718;2024-02-26T05:40:30;0.52;;;0.52;;
83558;SDS011;73527;47.882;7.718;2024-02-26T05:42:56;0.68;;;0.65;;
83558;SDS011;73527;47.882;7.718;2024-02-26T05:45:21;0.82;;;0.55;;
83558;SDS011;73527;47.882;7.718;2024-02-26T05:47:47;0.85;;;0.50;;
83558;SDS011;73527;47.882;7.718;2024-02-26T05:50:12;0.70;;;0.40;;
83558;SDS011;73527;47.882;7.718;2024-02-26T05:52:38;1.00;;;0.80;;
83558;SDS011;73527;47.882;7.718;2024-02-26T05:55:04;0.77;;;0.50;;
83558;SDS011;73527;47.882;7.718;2024-02-26T05:57:30;1.15;;;0.82;;
83558;SDS011;73527;47.882;7.718;2024-02-26T06:02:21;0.60;;;0.60;;
83558;SDS011;73527;47.882;7.718;2024-02-26T06:04:47;0.40;;;0.30;;
83558;SDS011;73527;47.882;7.718;2024-02-26T06:07:12;0.70;;;0.55;;
83558;SDS011;73527;47.882;7.718;2024-02-26T06:09:37;1.55;;;0.88;;
83558;SDS011;73527;47.882;7.718;2024-02-26T06:12:03;1.30;;;0.43;;
83558;SDS011;73527;47.882;7.718;2024-02-26T06:14:28;2.40;;;0.80;;
83558;SDS011;73527;47.882;7.718;2024-02-26T06:16:54;1.15;;;0.77;;
83558;SDS011;73527;47.882;7.718;2024-02-26T06:19:19;0.85;;;0.82;;
83558;SDS011;73527;47.882;7.718;2024-02-26T06:21:44;1.52;;;0.88;;
83558;SDS011;73527;47.882;7.718;2024-02-26T06:24:09;1.63;;;1.00;;
83558;SDS011;73527;47.882;7.718;2024-02-26T06:26:35;2.25;;;1.70;;
83558;SDS011;73527;47.882;7.718;2024-02-26T06:29:00;2.50;;;1.60;;
83558;SDS011;73527;47.882;7.718;2024-02-26T06:31:26;3.15;;;1.60;;
83558;SDS011;73527;47.882;7.718;2024-02-26T06:33:53;3.63;;;2.05;;
83558;SDS011;73527;47.882;7.718;2024-02-26T06:36:21;3.05;;;1.98;;
83558;SDS011;73527;47.882;7.718;2024-02-26T06:38:47;2.47;;;1.83;;
83558;SDS011;73527;47.882;7.718;2024-02-26T06:41:12;3.10;;;2.67;;
83558;SDS011;73527;47.882;7.718;2024-02-26T06:43:38;1.70;;;1.23;;
83558;SDS011;73527;47.882;7.718;2024-02-26T06:46:03;1.60;;;1.30;;
83558;SDS011;73527;47.882;7.718;2024-02-26T06:48:28;1.60;;;1.02;;
83558;SDS011;73527;47.882;7.718;2024-02-26T06:50:54;1.85;;;1.23;;
83558;SDS011;73527;47.882;7.718;2024-02-26T06:53:19;2.05;;;1.40;;
83558;SDS011;73527;47.882;7.718;2024-02-26T06:55:44;1.33;;;0.90;;
83558;SDS011;73527;47.882;7.718;2024-02-26T06:58:10;1.95;;;1.10;;
83558;SDS011;73527;47.882;7.718;2024-02-26T07:00:35;1.02;;;0.85;;
83558;SDS011;73527;47.882;7.718;2024-02-26T07:03:01;1.40;;;1.05;;
83558;SDS011;73527;47.882;7.718;2024-02-26T07:05:27;1.10;;;1.00;;
83558;SDS011;73527;47.882;7.718;2024-02-26T07:07:52;1.42;;;1.05;;
83558;SDS011;73527;47.882;7.718;2024-02-26T07:10:18;1.20;;;1.00;;
83558;SDS011;73527;47.882;7.718;2024-02-26T07:12:43;1.52;;;1.42;;
83558;SDS011;73527;47.882;7.718;2024-02-26T07:15:09;2.13;;;1.17;;
83558;SDS011;73527;47.882;7.718;2024-02-26T07:17:35;2.70;;;1.50;;
83558;SDS011;73527;47.882;7.718;2024-02-26T07:20:00;2.55;;;1.52;;
83558;SDS011;73527;47.882;7.718;2024-02-26T07:22:26;3.65;;;1.60;;
83558;SDS011;73527;47.882;7.718;2024-02-26T07:24:51;2.38;;;1.60;;
83558;SDS011;73527;47.882;7.718;2024-02-26T07:27:18;4.03;;;2.00;;
83558;SDS011;73527;47.882;7.718;2024-02-26T07:29:43;2.17;;;1.40;;
83558;SDS011;73527;47.882;7.718;2024-02-26T07:32:09;4.53;;;2.25;;
83558;SDS011;73527;47.882;7.718;2024-02-26T07:34:35;3.80;;;2.13;;
83558;SDS011;73527;47.882;7.718;2024-02-26T07:37:02;2.58;;;1.67;;
83558;SDS011;73527;47.882;7.718;2024-02-26T07:39:28;1.20;;;0.88;;
83558;SDS011;73527;47.882;7.718;2024-02-26T07:41:53;1.83;;;1.20;;
83558;SDS011;73527;47.882;7.718;2024-02-26T07:44:18;1.90;;;1.30;;
83558;SDS011;73527;47.882;7.718;2024-02-26T07:46:44;2.10;;;1.13;;
83558;SDS011;73527;47.882;7.718;2024-02-26T07:49:09;2.33;;;1.50;;
83558;SDS011;73527;47.882;7.718;2024-02-26T07:51:35;2.75;;;1.30;;
83558;SDS011;73527;47.882;7.718;2024-02-26T07:54:00;2.88;;;1.42;;
83558;SDS011;73527;47.882;7.718;2024-02-26T07:56:26;3.67;;;1.95;;
83558;SDS011;73527;47.882;7.718;2024-02-26T08:01:17;2.97;;;1.90;;
83558;SDS011;73527;47.882;7.718;2024-02-26T08:03:42;3.20;;;2.42;;
83558;SDS011;73527;47.882;7.718;2024-02-26T08:06:08;2.83;;;1.90;;
83558;SDS011;73527;47.882;7.718;2024-02-26T08:08:33;4.03;;;3.10;;
83558;SDS011;73527;47.882;7.718;2024-02-26T08:10:59;4.82;;;3.20;;
83558;SDS011;73527;47.882;7.718;2024-02-26T08:13:25;4.55;;;3.15;;
83558;SDS011;73527;47.882;7.718;2024-02-26T08:15:51;3.80;;;3.10;;
83558;SDS011;73527;47.882;7.718;2024-02-26T08:18:17;4.30;;;3.47;;
83558;SDS011;73527;47.882;7.718;2024-02-26T08:20:42;4.88;;;3.22;;
83558;SDS011;73527;47.882;7.718;2024-02-26T08:23:07;4.00;;;3.08;;
83558;SDS011;73527;47.882;7.718;2024-02-26T08:25:33;4.25;;;3.25;;
83558;SDS011;73527;47.882;7.718;2024-02-26T08:27:58;4.22;;;3.38;;
83558;SDS011;73527;47.882;7.718;2024-02-26T08:30:24;5.18;;;3.53;;
83558;SDS011;73527;47.882;7.718;2024-02-26T08:32:49;4.32;;;3.20;;
83558;SDS011;73527;47.882;7.718;2024-02-26T08:35:15;5.80;;;4.53;;
83558;SDS011;73527;47.882;7.718;2024-02-26T08:40:09;7.35;;;4.78;;
83558;SDS011;73527;47.882;7.718;2024-02-26T08:42:34;6.22;;;5.15;;
83558;SDS011;73527;47.882;7.718;2024-02-26T08:45:00;7.82;;;5.47;;
83558;SDS011;73527;47.882;7.718;2024-02-26T08:47:26;8.13;;;5.22;;
83558;SDS011;73527;47.882;7.718;2024-02-26T08:49:51;7.50;;;5.60;;
83558;SDS011;73527;47.882;7.718;2024-02-26T08:52:17;8.32;;;5.57;;
83558;SDS011;73527;47.882;7.718;2024-02-26T08:54:42;7.35;;;5.18;;
83558;SDS011;73527;47.882;7.718;2024-02-26T08:57:08;6.35;;;4.97;;
83558;SDS011;73527;47.882;7.718;2024-02-26T08:59:33;7.78;;;5.10;;
83558;SDS011;73527;47.882;7.718;2024-02-26T09:01:58;5.80;;;4.63;;
83558;SDS011;73527;47.882;7.718;2024-02-26T09:04:24;5.60;;;4.63;;
83558;SDS011;73527;47.882;7.718;2024-02-26T09:06:49;5.22;;;4.25;;
83558;SDS011;73527;47.882;7.718;2024-02-26T09:09:14;6.07;;;4.78;;
83558;SDS011;73527;47.882;7.718;2024-02-26T09:11:40;7.85;;;5.25;;
83558;SDS011;73527;47.882;7.718;2024-02-26T09:14:05;9.00;;;5.18;;
83558;SDS011;73527;47.882;7.718;2024-02-26T09:16:30;9.02;;;5.50;;
83558;SDS011;73527;47.882;7.718;2024-02-26T09:18:56;5.97;;;4.45;;
83558;SDS011;73527;47.882;7.718;2024-02-26T09:21:22;5.68;;;4.78;;
83558;SDS011;73527;47.882;7.718;2024-02-26T09:23:49;5.20;;;4.15;;
83558;SDS011;73527;47.882;7.718;2024-02-26T09:26:15;4.82;;;3.95;;
83558;SDS011;73527;47.882;7.718;2024-02-26T09:28:40;5.40;;;4.20;;
83558;SDS011;73527;47.882;7.718;2024-02-26T09:31:05;5.38;;;4.65;;
83558;SDS011;73527;47.882;7.718;2024-02-26T09:33:31;6.18;;;4.32;;
83558;SDS011;73527;47.882;7.718;2024-02-26T09:35:57;5.18;;;4.68;;
83558;SDS011;73527;47.882;7.718;2024-02-26T09:38:23;5.65;;;4.07;;
83558;SDS011;73527;47.882;7.718;2024-02-26T09:40:49;5.28;;;4.13;;
83558;SDS011;73527;47.882;7.718;2024-02-26T09:43:15;4.72;;;3.50;;
83558;SDS011;73527;47.882;7.718;2024-02-26T09:45:46;4.28;;;3.40;;
83558;SDS011;73527;47.882;7.718;2024-02-26T09:48:12;4.10;;;3.10;;
83558;SDS011;73527;47.882;7.718;2024-02-26T09:50:40;4.45;;;3.38;;
83558;SDS011;73527;47.882;7.718;2024-02-26T09:53:06;3.92;;;3.00;;
83558;SDS011;73527;47.882;7.718;2024-02-26T09:55:35;3.83;;;3.10;;
83558;SDS011;73527;47.882;7.718;2024-02-26T09:58:01;6.03;;;2.33;;
83558;SDS011;73527;47.882;7.718;2024-02-26T10:00:29;4.68;;;3.15;;
83558;SDS011;73527;47.882;7.718;2024-02-26T10:02:58;3.95;;;2.92;;
83558;SDS011;73527;47.882;7.718;2024-02-26T10:05:28;4.75;;;4.10;;
83558;SDS011;73527;47.882;7.718;2024-02-26T10:10:22;3.38;;;2.10;;
83558;SDS011;73527;47.882;7.718;2024-02-26T10:12:48;4.18;;;3.25;;
83558;SDS011;73527;47.882;7.718;2024-02-26T10:15:13;3.22;;;2.90;;
83558;SDS011;73527;47.882;7.718;2024-02-26T10:20:14;5.68;;;3.22;;
83558;SDS011;73527;47.882;7.718;2024-02-26T10:22:41;3.47;;;2.40;;
83558;SDS011;73527;47.882;7.718;2024-02-26T10:25:07;2.90;;;2.22;;
83558;SDS011;73527;47.882;7.718;2024-02-26T10:27:34;2.90;;;2.03;;
83558;SDS011;73527;47.882;7.718;2024-02-26T10:30:18;4.53;;;2.22;;
83558;SDS011;73527;47.882;7.718;2024-02-26T10:32:46;3.67;;;2.28;;
83558;SDS011;73527;47.882;7.718;2024-02-26T10:35:12;3.92;;;2.85;;
83558;SDS011;73527;47.882;7.718;2024-02-26T10:37:39;4.68;;;2.92;;
83558;SDS011;73527;47.882;7.718;2024-02-26T10:40:06;3.50;;;2.83;;
83558;SDS011;73527;47.882;7.718;2024-02-26T10:42:35;3.70;;;2.63;;
83558;SDS011;73527;47.882;7.718;2024-02-26T10:47:27;4.15;;;2.67;;
83558;SDS011;73527;47.882;7.718;2024-02-26T10:49:55;3.60;;;2.95;;
83558;SDS011;73527;47.882;7.718;2024-02-26T10:52:21;3.30;;;2.80;;
83558;SDS011;73527;47.882;7.718;2024-02-26T10:54:50;3.88;;;2.30;;
83558;SDS011;73527;47.882;7.718;2024-02-26T10:59:49;3.05;;;2.50;;
83558;SDS011;73527;47.882;7.718;2024-02-26T11:02:18;3.55;;;2.50;;
83558;SDS011;73527;47.882;7.718;2024-02-26T11:04:45;3.53;;;2.22;;
83558;SDS011;73527;47.882;7.718;2024-02-26T11:07:11;2.38;;;2.15;;
83558;SDS011;73527;47.882;7.718;2024-02-26T11:12:08;2.95;;;2.28;;
83558;SDS011;73527;47.882;7.718;2024-02-26T11:14:36;3.92;;;3.17;;
83558;SDS011;73527;47.882;7.718;2024-02-26T11:17:04;3.88;;;3.03;;
83558;SDS011;73527;47.882;7.718;2024-02-26T11:19:32;4.00;;;2.80;;
83558;SDS011;73527;47.882;7.718;2024-02-26T11:22:00;5.95;;;3.58;;
83558;SDS011;73527;47.882;7.718;2024-02-26T11:24:26;6.15;;;3.90;;
83558;SDS011;73527;47.882;7.718;2024-02-26T11:26:53;5.38;;;3.22;;
83558;SDS011;73527;47.882;7.718;2024-02-26T11:29:24;5.65;;;2.90;;
83558;SDS011;73527;47.882;7.718;2024-02-26T11:31:52;4.20;;;3.28;;
83558;SDS011;73527;47.882;7.718;2024-02-26T11:34:18;4.70;;;3.17;;
83558;SDS011;73527;47.882;7.718;2024-02-26T11:39:10;5.18;;;2.97;;
83558;SDS011;73527;47.882;7.718;2024-02-26T11:41:38;4.68;;;2.90;;
83558;SDS011;73527;47.882;7.718;2024-02-26T11:44:03;4.63;;;3.28;;
83558;SDS011;73527;47.882;7.718;2024-02-26T11:46:41;5.93;;;3.53;;
83558;SDS011;73527;47.882;7.718;2024-02-26T11:51:52;4.18;;;2.80;;
83558;SDS011;73527;47.882;7.718;2024-02-26T11:57:04;4.40;;;3.05;;
83558;SDS011;73527;47.882;7.718;2024-02-26T11:59:38;5.93;;;3.03;;
83558;SDS011;73527;47.882;7.718;2024-02-26T12:02:06;4.15;;;2.97;;
83558;SDS011;73527;47.882;7.718;2024-02-26T12:04:32;5.55;;;3.20;;
83558;SDS011;73527;47.882;7.718;2024-02-26T12:07:00;5.72;;;2.83;;
83558;SDS011;73527;47.882;7.718;2024-02-26T12:09:33;5.07;;;3.08;;
83558;SDS011;73527;47.882;7.718;2024-02-26T12:12:01;3.92;;;2.70;;
83558;SDS011;73527;47.882;7.718;2024-02-26T12:14:28;5.20;;;3.33;;
83558;SDS011;73527;47.882;7.718;2024-02-26T12:16:55;5.10;;;2.45;;
83558;SDS011;73527;47.882;7.718;2024-02-26T12:19:20;5.35;;;3.45;;
83558;SDS011;73527;47.882;7.718;2024-02-26T12:21:48;3.67;;;3.00;;
83558;SDS011;73527;47.882;7.718;2024-02-26T12:24:18;4.55;;;2.67;;
83558;SDS011;73527;47.882;7.718;2024-02-26T12:26:45;4.30;;;2.45;;
83558;SDS011;73527;47.882;7.718;2024-02-26T12:29:10;4.65;;;2.88;;
83558;SDS011;73527;47.882;7.718;2024-02-26T12:31:36;4.65;;;2.85;;
83558;SDS011;73527;47.882;7.718;2024-02-26T12:34:02;3.95;;;2.58;;
83558;SDS011;73527;47.882;7.718;2024-02-26T12:36:28;3.72;;;2.25;;
83558;SDS011;73527;47.882;7.718;2024-02-26T12:38:54;5.57;;;3.47;;
83558;SDS011;73527;47.882;7.718;2024-02-26T12:41:20;4.75;;;2.80;;
83558;SDS011;73527;47.882;7.718;2024-02-26T12:43:46;4.93;;;2.70;;
83558;SDS011;73527;47.882;7.718;2024-02-26T12:46:12;3.90;;;2.50;;
83558;SDS011;73527;47.882;7.718;2024-02-26T12:48:38;4.53;;;2.78;;
83558;SDS011;73527;47.882;7.718;2024-02-26T12:51:04;3.75;;;2.40;;
83558;SDS011;73527;47.882;7.718;2024-02-26T12:53:30;9.38;;;2.53;;
83558;SDS011;73527;47.882;7.718;2024-02-26T12:55:57;4.57;;;2.13;;
83558;SDS011;73527;47.882;7.718;2024-02-26T12:58:23;3.83;;;2.22;;
83558;SDS011;73527;47.882;7.718;2024-02-26T13:00:53;2.97;;;2.40;;
83558;SDS011;73527;47.882;7.718;2024-02-26T13:03:19;4.18;;;2.45;;
83558;SDS011;73527;47.882;7.718;2024-02-26T13:05:46;3.88;;;2.65;;
83558;SDS011;73527;47.882;7.718;2024-02-26T13:08:18;3.22;;;2.40;;
83558;SDS011;73527;47.882;7.718;2024-02-26T13:10:45;3.75;;;2.22;;
83558;SDS011;73527;47.882;7.718;2024-02-26T13:13:12;3.90;;;2.35;;
83558;SDS011;73527;47.882;7.718;2024-02-26T13:15:40;3.00;;;2.40;;
83558;SDS011;73527;47.882;7.718;2024-02-26T13:18:09;3.50;;;2.50;;
83558;SDS011;73527;47.882;7.718;2024-02-26T13:20:35;3.33;;;2.50;;
83558;SDS011;73527;47.882;7.718;2024-02-26T13:23:04;5.72;;;2.30;;
83558;SDS011;73527;47.882;7.718;2024-02-26T13:25:31;3.85;;;2.15;;
83558;SDS011;73527;47.882;7.718;2024-02-26T13:28:06;3.17;;;2.20;;
83558;SDS011;73527;47.882;7.718;2024-02-26T13:30:38;2.60;;;1.83;;
83558;SDS011;73527;47.882;7.718;2024-02-26T13:33:08;3.85;;;2.15;;
83558;SDS011;73527;47.882;7.718;2024-02-26T13:35:34;3.72;;;1.95;;
83558;SDS011;73527;47.882;7.718;2024-02-26T13:38:01;3.55;;;2.50;;
83558;SDS011;73527;47.882;7.718;2024-02-26T13:40:27;4.22;;;2.50;;
83558;SDS011;73527;47.882;7.718;2024-02-26T13:42:54;4.20;;;2.60;;
83558;SDS011;73527;47.882;7.718;2024-02-26T13:45:19;3.33;;;2.50;;
83558;SDS011;73527;47.882;7.718;2024-02-26T13:47:44;4.32;;;2.60;;
83558;SDS011;73527;47.882;7.718;2024-02-26T13:50:10;3.08;;;2.00;;
83558;SDS011;73527;47.882;7.718;2024-02-26T13:52:35;3.40;;;2.10;;
83558;SDS011;73527;47.882;7.718;2024-02-26T13:55:00;3.10;;;1.92;;
83558;SDS011;73527;47.882;7.718;2024-02-26T13:57:27;3.35;;;2.13;;
83558;SDS011;73527;47.882;7.718;2024-02-26T13:59:53;2.95;;;2.40;;
83558;SDS011;73527;47.882;7.718;2024-02-26T14:02:19;3.70;;;2.03;;
83558;SDS011;73527;47.882;7.718;2024-02-26T14:04:45;2.53;;;1.98;;
83558;SDS011;73527;47.882;7.718;2024-02-26T14:07:11;2.67;;;1.83;;
83558;SDS011;73527;47.882;7.718;2024-02-26T14:09:37;3.90;;;2.42;;
83558;SDS011;73527;47.882;7.718;2024-02-26T14:12:03;3.38;;;1.98;;
83558;SDS011;73527;47.882;7.718;2024-02-26T14:14:29;4.07;;;1.83;;
83558;SDS011;73527;47.882;7.718;2024-02-26T14:16:57;2.90;;;2.13;;
83558;SDS011;73527;47.882;7.718;2024-02-26T14:19:23;2.35;;;1.42;;
83558;SDS011;73527;47.882;7.718;2024-02-26T14:21:48;2.83;;;1.83;;
83558;SDS011;73527;47.882;7.718;2024-02-26T14:24:13;2.20;;;1.52;;
83558;SDS011;73527;47.882;7.718;2024-02-26T14:26:40;3.13;;;1.95;;
83558;SDS011;73527;47.882;7.718;2024-02-26T14:29:05;3.65;;;2.15;;
83558;SDS011;73527;47.882;7.718;2024-02-26T14:31:32;3.10;;;1.73;;
83558;SDS011;73527;47.882;7.718;2024-02-26T14:33:57;2.63;;;1.75;;
83558;SDS011;73527;47.882;7.718;2024-02-26T14:36:22;2.80;;;1.52;;
83558;SDS011;73527;47.882;7.718;2024-02-26T14:38:48;2.25;;;1.60;;
83558;SDS011;73527;47.882;7.718;2024-02-26T14:41:14;3.17;;;1.50;;
83558;SDS011;73527;47.882;7.718;2024-02-26T14:43:39;3.80;;;2.00;;
83558;SDS011;73527;47.882;7.718;2024-02-26T14:46:04;3.08;;;1.88;;
83558;SDS011;73527;47.882;7.718;2024-02-26T14:48:30;3.38;;;1.63;;
83558;SDS011;73527;47.882;7.718;2024-02-26T14:50:56;2.08;;;1.40;;
83558;SDS011;73527;47.882;7.718;2024-02-26T14:53:22;1.83;;;1.13;;
83558;SDS011;73527;47.882;7.718;2024-02-26T14:55:48;2.28;;;1.30;;
83558;SDS011;73527;47.882;7.718;2024-02-26T14:58:13;1.98;;;1.30;;
83558;SDS011;73527;47.882;7.718;2024-02-26T15:00:38;3.35;;;1.20;;
83558;SDS011;73527;47.882;7.718;2024-02-26T15:03:04;1.35;;;1.00;;
83558;SDS011;73527;47.882;7.718;2024-02-26T15:05:30;2.88;;;1.60;;
83558;SDS011;73527;47.882;7.718;2024-02-26T15:07:56;2.58;;;1.30;;
83558;SDS011;73527;47.882;7.718;2024-02-26T15:10:21;2.53;;;1.60;;
83558;SDS011;73527;47.882;7.718;2024-02-26T15:12:47;2.03;;;1.20;;
83558;SDS011;73527;47.882;7.718;2024-02-26T15:15:12;2.08;;;1.20;;